createdAt,value
2022-12-11T00:00:01.671Z,62
2022-12-11T00:05:02.202Z,77
2022-12-11T00:10:01.601Z,57
2022-12-11T00:15:02.396Z,52
2022-12-11T00:20:01.965Z,58
2022-12-11T00:25:01.441Z,69
2022-12-11T00:30:02.220Z,17
2022-12-11T00:35:01.686Z,14
2022-12-11T00:40:02.059Z,18
2022-12-11T00:45:01.422Z,16
2022-12-11T00:50:01.772Z,15
2022-12-11T00:55:02.147Z,14
2022-12-11T01:00:01.510Z,12
2022-12-11T01:05:01.997Z,15
2022-12-11T01:10:01.397Z,14
2022-12-11T01:15:01.779Z,16
2022-12-11T01:20:02.207Z,13
2022-12-11T01:25:01.731Z,16
2022-12-11T01:30:02.094Z,13
2022-12-11T01:35:01.482Z,16
2022-12-11T01:40:02.307Z,16
2022-12-11T01:45:01.804Z,25
2022-12-11T01:50:02.272Z,18
2022-12-11T01:55:02.059Z,18
2022-12-11T02:00:01.851Z,16
2022-12-11T02:05:02.391Z,16
2022-12-11T02:10:01.915Z,15
2022-12-11T02:15:02.277Z,17
2022-12-11T02:20:01.746Z,26
2022-12-11T02:25:02.112Z,19
2022-12-11T02:30:01.475Z,16
2022-12-11T02:35:02.265Z,35
2022-12-11T02:40:01.656Z,20
2022-12-11T02:45:02.034Z,17
2022-12-11T02:50:01.498Z,16
2022-12-11T02:55:01.865Z,21
2022-12-11T03:00:02.412Z,46
2022-12-11T03:05:01.785Z,16
2022-12-11T03:10:02.193Z,21
2022-12-11T03:15:01.559Z,15
2022-12-11T03:20:02.002Z,15
2022-12-11T03:25:01.823Z,19
2022-12-11T03:30:02.319Z,29
2022-12-11T03:35:01.712Z,72
2022-12-11T03:40:02.123Z,32
2022-12-11T03:45:01.507Z,32
2022-12-11T03:50:01.861Z,31
2022-12-11T03:55:02.239Z,24
2022-12-11T04:00:01.645Z,22
2022-12-11T04:05:02.188Z,22
2022-12-11T04:10:01.717Z,52
2022-12-11T04:15:02.104Z,71
2022-12-11T04:20:01.950Z,38
2022-12-11T04:25:02.732Z,52
2022-12-11T04:30:02.253Z,43
2022-12-11T04:35:01.625Z,76
2022-12-11T04:40:02.018Z,32
2022-12-11T04:45:01.811Z,78
2022-12-11T04:50:02.168Z,34
2022-12-11T04:55:01.539Z,19
2022-12-11T05:00:02.109Z,76
2022-12-11T05:05:01.895Z,21
2022-12-11T05:10:02.408Z,20
2022-12-11T05:15:01.784Z,22
2022-12-11T05:20:02.251Z,17
2022-12-11T05:25:02.044Z,21
2022-12-11T05:30:01.965Z,141
2022-12-11T05:35:01.320Z,55
2022-12-11T05:40:01.726Z,30
2022-12-11T05:45:02.521Z,57
2022-12-11T05:50:02.066Z,28
2022-12-11T05:55:01.854Z,33
2022-12-11T06:00:02.236Z,72
2022-12-11T06:05:01.618Z,37
2022-12-11T06:10:02.122Z,25
2022-12-11T06:15:01.518Z,39
2022-12-11T06:20:01.965Z,76
2022-12-11T06:25:01.740Z,72
2022-12-11T06:30:02.516Z,10
2022-12-11T06:35:01.855Z,10
2022-12-11T06:40:02.251Z,10
2022-12-11T06:45:02.052Z,11
2022-12-11T06:50:01.393Z,10
2022-12-11T06:55:01.869Z,11
2022-12-11T07:00:02.398Z,8
2022-12-11T07:05:01.942Z,8
2022-12-11T07:10:07.650Z,8
2022-12-11T07:15:01.579Z,7
2022-12-11T07:20:02.160Z,7
2022-12-11T07:25:01.668Z,10
2022-12-11T07:30:02.040Z,8
2022-12-11T07:35:01.416Z,30
2022-12-11T07:40:02.244Z,81
2022-12-11T07:45:01.759Z,27
2022-12-11T07:50:02.240Z,52
2022-12-11T07:55:02.016Z,43
2022-12-11T08:00:01.811Z,83
2022-12-11T08:05:02.292Z,35
2022-12-11T08:10:01.687Z,62
2022-12-11T08:15:02.214Z,89
2022-12-11T08:20:01.823Z,29
2022-12-11T08:25:02.599Z,40
2022-12-11T08:30:02.088Z,8
2022-12-11T08:35:01.538Z,9
2022-12-11T08:40:01.949Z,11
2022-12-11T08:45:01.386Z,10
2022-12-11T08:50:02.175Z,9
2022-12-11T08:55:01.593Z,16
2022-12-11T09:00:02.096Z,69
2022-12-11T09:05:01.452Z,84
2022-12-11T09:10:01.853Z,84
2022-12-11T09:15:02.346Z,23
2022-12-11T09:20:01.779Z,78
2022-12-11T09:25:02.283Z,40
2022-12-11T09:30:01.832Z,15
2022-12-11T09:35:02.602Z,58
2022-12-11T09:40:07.379Z,27
2022-12-11T09:45:02.353Z,34
2022-12-11T09:50:02.133Z,10
2022-12-11T09:55:01.920Z,29
2022-12-11T10:00:05.125Z,29
2022-12-11T10:05:02.244Z,44
2022-12-11T10:10:01.762Z,14
2022-12-11T10:15:02.317Z,18
2022-12-11T10:20:02.175Z,14
2022-12-11T10:25:12.549Z,29
2022-12-11T10:30:02.225Z,11
2022-12-11T10:35:02.022Z,14
2022-12-11T10:40:01.550Z,92
2022-12-11T10:45:02.044Z,20
2022-12-11T10:50:01.419Z,73
2022-12-11T10:55:02.205Z,44
2022-12-11T11:00:02.022Z,74
2022-12-11T11:05:01.512Z,86
2022-12-11T11:10:01.893Z,50
2022-12-11T11:15:02.437Z,41
2022-12-11T11:20:02.184Z,71
2022-12-11T11:25:01.973Z,86
2022-12-11T11:30:01.363Z,59
2022-12-11T11:35:01.895Z,32
2022-12-11T11:40:02.399Z,50
2022-12-11T11:45:02.176Z,64
2022-12-11T11:50:01.553Z,36
2022-12-11T11:55:02.029Z,93
2022-12-11T12:00:01.513Z,82
2022-12-11T12:05:01.994Z,67
2022-12-11T12:10:01.900Z,88
2022-12-11T12:15:02.723Z,78
2022-12-11T12:20:02.582Z,72
2022-12-11T12:25:01.937Z,75
2022-12-11T12:30:02.728Z,21
2022-12-11T12:35:02.523Z,59
2022-12-11T12:40:02.338Z,69
2022-12-11T12:45:02.146Z,27
2022-12-11T12:50:01.491Z,39
2022-12-11T12:55:01.989Z,82
2022-12-11T13:00:01.361Z,89
2022-12-11T13:05:01.902Z,87
2022-12-11T13:10:01.433Z,87
2022-12-11T13:15:02.219Z,38
2022-12-11T13:20:01.778Z,62
2022-12-11T13:25:02.562Z,27
2022-12-11T13:30:01.956Z,71
2022-12-11T13:35:01.448Z,72
2022-12-11T13:40:02.269Z,69
2022-12-11T13:45:01.821Z,62
2022-12-11T13:50:02.177Z,37
2022-12-11T13:55:01.660Z,87
2022-12-11T14:00:02.218Z,33
2022-12-11T14:05:01.605Z,28
2022-12-11T14:10:02.411Z,24
2022-12-11T14:15:01.888Z,89
2022-12-11T14:20:01.450Z,65
2022-12-11T14:25:01.921Z,58
2022-12-11T14:30:02.411Z,37
2022-12-11T14:35:01.806Z,60
2022-12-11T14:40:02.190Z,43
2022-12-11T14:45:01.576Z,75
2022-12-11T14:50:01.909Z,43
2022-12-11T14:55:02.373Z,22
2022-12-11T15:00:01.926Z,21
2022-12-11T15:05:01.747Z,69
2022-12-11T15:10:02.130Z,72
2022-12-11T15:15:02.021Z,43
2022-12-11T15:20:01.604Z,41
2022-12-11T15:25:02.001Z,97
2022-12-11T15:30:01.446Z,15
2022-12-11T15:35:01.989Z,84
2022-12-11T15:40:01.599Z,67
2022-12-11T15:45:02.406Z,50
2022-12-11T15:50:02.164Z,49
2022-12-11T15:55:01.632Z,48
2022-12-11T16:00:02.024Z,59
2022-12-11T16:05:01.792Z,55
2022-12-11T16:10:02.616Z,67
2022-12-11T16:15:02.114Z,33
2022-12-11T16:20:01.660Z,65
2022-12-11T16:25:02.176Z,60
2022-12-11T16:30:01.537Z,73
2022-12-11T16:35:02.355Z,40
2022-12-11T16:40:01.873Z,41
2022-12-11T16:45:02.245Z,61
2022-12-11T16:50:02.028Z,55
2022-12-11T16:55:01.557Z,39
2022-12-11T17:00:02.057Z,39
2022-12-11T17:05:01.413Z,77
2022-12-11T17:10:01.919Z,44
2022-12-11T17:15:02.694Z,80
2022-12-11T17:20:02.243Z,77
2022-12-11T17:25:01.719Z,76
2022-12-11T17:30:02.214Z,71
2022-12-11T17:35:01.985Z,65
2022-12-11T17:40:01.815Z,41
2022-12-11T17:45:02.596Z,49
2022-12-11T17:50:02.381Z,64
2022-12-11T17:55:02.166Z,58
2022-12-11T18:00:01.961Z,41
2022-12-11T18:05:01.467Z,73
2022-12-11T18:10:01.996Z,73
2022-12-11T18:15:01.782Z,66
2022-12-11T18:20:02.635Z,58
2022-12-11T18:25:09.295Z,56
2022-12-11T18:30:02.126Z,24
2022-12-11T18:35:01.922Z,46
2022-12-11T18:40:01.380Z,72
2022-12-11T18:45:02.172Z,83
2022-12-11T18:50:07.389Z,77
2022-12-11T18:55:02.385Z,22
2022-12-11T19:00:01.876Z,45
2022-12-11T19:05:02.654Z,41
2022-12-11T19:10:02.184Z,14
2022-12-11T19:15:01.685Z,13
2022-12-11T19:20:18.725Z,19
2022-12-11T19:25:01.594Z,68
2022-12-11T19:30:02.365Z,117
2022-12-11T19:35:01.745Z,279
2022-12-11T19:40:02.257Z,247
2022-12-11T19:45:01.805Z,139
2022-12-11T19:50:02.602Z,139
2022-12-11T19:55:01.983Z,288
2022-12-11T20:00:01.456Z,278
2022-12-11T20:05:01.956Z,246
2022-12-11T20:10:01.797Z,317
2022-12-11T20:15:02.180Z,261
2022-12-11T20:20:02.029Z,157
2022-12-11T20:25:01.532Z,253
2022-12-11T20:30:01.891Z,205
2022-12-11T20:35:02.661Z,137
2022-12-11T20:40:02.225Z,138
2022-12-11T20:45:01.583Z,136
2022-12-11T20:50:02.070Z,137
2022-12-11T20:55:01.563Z,137
2022-12-11T21:00:02.079Z,132
2022-12-11T21:05:01.889Z,134
2022-12-11T21:10:02.470Z,131
2022-12-11T21:15:02.277Z,128
2022-12-11T21:20:01.842Z,131
2022-12-11T21:25:02.643Z,133
2022-12-11T21:30:02.035Z,155
2022-12-11T21:35:01.410Z,133
2022-12-11T21:40:01.828Z,135
2022-12-11T21:50:02.166Z,132
2022-12-11T21:55:01.534Z,133
2022-12-11T22:00:01.949Z,131
2022-12-11T22:05:01.644Z,127
2022-12-11T22:10:02.225Z,129
2022-12-11T22:15:01.651Z,123
2022-12-11T22:20:02.499Z,124
2022-12-11T22:25:02.040Z,126
2022-12-11T22:30:01.549Z,135
2022-12-11T22:35:01.909Z,123
2022-12-11T22:40:01.478Z,132
2022-12-11T22:45:01.971Z,135
2022-12-11T22:50:01.746Z,138
2022-12-11T22:55:02.531Z,136
2022-12-11T23:00:02.477Z,134
2022-12-11T23:05:02.197Z,139
2022-12-11T23:10:01.605Z,140
2022-12-11T23:15:01.984Z,135
2022-12-11T23:20:02.136Z,138
2022-12-11T23:25:01.513Z,134
2022-12-11T23:30:01.889Z,144
2022-12-11T23:35:02.354Z,143
2022-12-11T23:40:01.774Z,137
2022-12-11T23:45:02.564Z,136
2022-12-11T23:50:02.115Z,138
2022-12-11T23:55:01.607Z,134
